Latest Weather Observations for Cooktown

IDQ60801

Issued at 9:02 pm EST Friday 6 March 2015 (issued every 30 minutes, with the page automatically refreshed every 10 minutes)

About weather observations | Map of weather stations | Latest weather observations for QLD | Other Formats
Station Details ID: 031209 Name: COOKTOWN AIRPORT Lat: -15.45 Lon: 145.19 Height: 4.8 m
Data from the previous 72 hours. | See also: Recent months at Cooktown
Date/Time
EST
Temp
°C
App
Temp
°C
Dew
Point
Rel
Hum
%
Delta-T
°C
Wind Press
QNH
hPa
Press
MSL
hPa
Rain
since 9 am
mm
Dir
 
Spd
km/h
Gust
km/h
Spd
kts
Gust
kts
06/09:00pm 26.8 33.1 25.4 92 1.0 WNW 2 6 1 3 1006.3 1006.2 0.0
06/08:30pm 26.8 33.5 25.4 92 1.0 CALM 0 6 0 3 1005.8 - 0.0
06/08:00pm 27.2 34.0 25.5 90 1.2 CALM 0 0 0 0 1005.2 - 0.0
06/07:30pm 27.4 32.8 25.4 89 1.4 ENE 7 9 4 5 1004.4 - 0.0
06/07:00pm 28.1 34.4 25.4 85 1.9 ENE 2 6 1 3 1004.7 - 0.0
06/06:30pm 28.4 32.6 25.4 84 2.1 ENE 13 17 7 9 1003.9 - 0.0
06/06:00pm 29.3 32.5 25.0 77 3.0 E 17 22 9 12 1003.7 1003.6 0.0
06/05:30pm 29.8 33.3 25.4 77 3.1 ENE 17 22 9 12 1003.3 - 0.0
06/05:00pm 30.0 33.2 24.9 74 3.6 E 17 22 9 12 1003.2 - 0.0
06/04:30pm 30.6 33.6 25.2 73 3.8 ENE 19 24 10 13 1003.2 - 0.0
06/04:00pm 31.1 34.1 25.2 71 4.2 E 19 24 10 13 1003.3 - 0.0
06/03:30pm 31.0 34.1 25.4 72 4.0 E 19 24 10 13 1003.6 - 0.0
06/03:00pm 31.1 33.5 24.2 66 4.8 E 19 24 10 13 1003.9 1003.8 0.0
06/02:30pm 31.0 33.8 24.3 67 4.7 E 17 24 9 13 1004.1 - 0.0
06/02:00pm 31.2 34.9 24.5 67 4.7 E 13 20 7 11 1004.3 - 0.0
06/01:30pm 31.1 34.2 24.2 66 4.8 E 15 22 8 12 1004.6 - 0.0
06/01:00pm 30.6 34.0 24.1 68 4.5 E 13 19 7 10 1004.8 - 0.0
06/12:30pm 30.8 35.0 24.7 70 4.3 E 11 15 6 8 1005.3 - 0.0
06/12:00pm 30.9 35.6 24.3 68 4.6 ESE 7 13 4 7 1005.8 1005.7 0.0
06/11:30am 30.6 35.7 24.1 68 4.5 S 4 7 2 4 1006.1 - 0.0
06/11:00am 30.3 35.1 24.1 69 4.3 SSW 6 9 3 5 1006.3 - 0.0
06/10:30am 29.7 34.0 23.6 69 4.2 SW 7 9 4 5 1006.6 - 0.0
06/10:00am 29.5 33.8 24.2 73 3.7 SSW 9 13 5 7 1006.9 - 0.0
06/09:30am 28.9 33.5 24.1 75 3.3 SSW 7 13 4 7 1006.9 - 0.0
06/09:00am 28.0 32.9 24.7 82 2.3 W 7 13 4 7 1007.0 1006.9 0.2
06/08:30am 27.1 32.0 24.7 87 1.7 WSW 7 9 4 5 1007.3 - 0.2
06/08:10am 26.4 31.4 24.5 89 1.3 NNW 6 7 3 4 1007.4 - 0.2
06/08:00am 26.2 31.8 24.8 92 1.0 WNW 4 7 2 4 1007.3 - 0.2
06/07:35am 25.8 31.2 24.5 92 0.9 W 4 7 2 4 1006.8 - 0.2
06/07:30am 25.7 31.6 24.7 94 0.7 W 2 6 1 3 1006.7 - 0.2
06/07:00am 25.6 30.5 24.4 93 0.8 W 6 9 3 5 1006.5 - 0.2
06/06:51am 25.4 30.4 24.5 95 0.6 W 6 7 3 4 1006.6 - 0.2
06/06:36am 25.2 30.2 24.5 96 0.5 W 6 9 3 5 1006.5 - 0.2
06/06:30am 25.1 29.9 24.4 96 0.5 W 7 9 4 5 1006.5 - 0.2
06/06:00am 25.1 30.5 24.5 96 0.4 W 4 6 2 3 1006.6 1006.5 0.2
06/05:30am 25.0 31.1 24.4 96 0.4 CALM 0 0 0 0 1006.5 - 0.2
06/05:00am 25.0 30.3 24.4 96 0.4 W 4 7 2 4 1006.3 - 0.2
06/04:30am 25.0 31.1 24.4 96 0.4 CALM 0 0 0 0 1006.0 - 0.2
06/04:00am 25.1 31.2 24.5 96 0.4 CALM 0 0 0 0 1005.6 - 0.2
06/03:30am 25.1 29.9 24.5 96 0.4 W 7 9 4 5 1005.9 - 0.2
06/03:00am 25.1 31.2 24.5 96 0.4 CALM 0 0 0 0 1006.1 1006.0 0.2
06/02:30am 25.3 31.5 24.6 96 0.5 CALM 0 0 0 0 1006.3 - 0.2
06/02:00am 25.3 30.4 24.6 96 0.5 W 6 7 3 4 1006.5 - 0.2
06/01:30am 25.3 29.9 24.7 96 0.4 NW 9 11 5 6 1007.0 - 0.2
06/01:00am 25.2 31.0 24.6 96 0.4 SSE 2 7 1 4 1007.4 - 0.2
06/12:30am 25.3 31.6 24.7 96 0.4 CALM 0 0 0 0 1007.7 - 0.2
06/12:00am 25.6 32.0 24.9 96 0.5 CALM 0 0 0 0 1007.9 1007.8 0.2
 
Date/Time
EST
Temp
°C
App
Temp
°C
Dew
Point
Rel
Hum
%
Delta-T
°C
Wind Press
QNH
hPa
Press
MSL
hPa
Rain
since 9 am
mm
Dir
 
Spd
km/h
Gust
km/h
Spd
kts
Gust
kts
05/11:30pm 26.0 32.5 25.1 95 0.6 CALM 0 0 0 0 1008.2 - 0.2
05/11:00pm 26.1 32.6 25.0 94 0.8 CALM 0 0 0 0 1008.2 - 0.2
05/10:30pm 26.3 32.8 25.0 92 0.9 CALM 0 0 0 0 1008.2 - 0.2
05/10:00pm 26.5 32.9 24.9 91 1.1 CALM 0 6 0 3 1008.1 - 0.2
05/09:30pm 27.2 32.3 24.9 87 1.6 S 7 9 4 5 1008.1 - 0.2
05/09:00pm 27.7 32.6 24.7 84 2.1 SE 7 9 4 5 1007.9 1007.7 0.2
05/08:50pm 27.5 32.4 24.6 84 2.0 SE 7 11 4 6 1007.8 - 0.2
05/08:30pm 27.6 32.5 24.6 84 2.1 SE 7 11 4 6 1007.7 - 0.2
05/08:00pm 27.7 32.1 24.5 83 2.2 SE 9 17 5 9 1007.1 - 0.2
05/07:30pm 27.8 32.3 24.6 83 2.2 SE 9 17 5 9 1006.7 - 0.2
05/07:00pm 28.0 31.8 24.7 82 2.3 SE 13 20 7 11 1006.4 - 0.2
05/06:30pm 28.3 30.7 24.3 79 2.8 ESE 19 30 10 16 1006.1 - 0.2
05/06:00pm 28.7 31.4 24.2 76 3.1 ESE 17 24 9 13 1005.9 1005.8 0.2
05/05:30pm 28.8 31.6 24.3 76 3.1 ESE 17 24 9 13 1005.9 - 0.2
05/05:00pm 29.3 30.0 23.0 69 4.3 ESE 24 33 13 18 1005.8 - 0.2
05/04:30pm 29.6 31.5 23.7 70 4.1 SE 20 30 11 16 1005.7 - 0.2
05/04:00pm 30.3 32.9 24.6 71 4.0 ESE 19 30 10 16 1005.5 - 0.2
05/03:30pm 30.2 31.7 23.7 68 4.5 SE 22 30 12 16 1005.5 - 0.2
05/03:00pm 31.0 33.2 23.2 63 5.4 ESE 17 30 9 16 1005.7 1005.7 0.2
05/02:30pm 30.3 31.8 24.3 70 4.2 ESE 24 33 13 18 1006.4 - 0.2
05/02:00pm 30.2 32.2 24.6 72 3.9 ESE 22 30 12 16 1007.1 - 0.0
05/01:30pm 30.3 33.7 24.6 71 4.0 E 15 20 8 11 1007.6 - 0.0
05/01:00pm 30.2 32.4 24.2 70 4.2 ESE 20 32 11 17 1008.1 - 0.0
05/12:30pm 29.6 31.4 24.9 76 3.3 ESE 24 37 13 20 1008.7 - 0.0
05/12:00pm 29.3 31.1 23.5 71 4.0 ESE 20 28 11 15 1009.0 1008.9 0.0
05/11:30am 29.1 31.3 23.9 73 3.6 ESE 19 28 10 15 1009.4 - 0.0
05/11:00am 30.2 33.5 25.7 77 3.2 ESE 19 24 10 13 1009.8 - 0.0
05/10:30am 29.5 31.0 24.3 73 3.6 ESE 24 35 13 19 1009.9 - 0.0
05/10:00am 30.0 32.3 24.4 72 3.9 ESE 20 35 11 19 1010.0 - 0.0
05/09:30am 29.7 33.3 24.4 73 3.7 SE 13 22 7 12 1009.8 - 0.0
05/09:00am 28.6 33.2 24.7 79 2.7 SSE 9 15 5 8 1009.9 1009.8 34.2
05/08:30am 26.8 32.6 24.5 87 1.6 S 2 6 1 3 1009.8 - 34.2
05/08:00am 26.8 32.6 24.6 88 1.5 SSW 2 7 1 4 1009.5 - 34.2
05/07:30am 25.2 31.3 24.5 96 0.5 CALM 0 0 0 0 1009.3 - 34.2
05/07:00am 24.2 28.6 23.8 98 0.3 WNW 7 11 4 6 1008.9 - 34.2
05/06:30am 24.0 29.7 23.7 98 0.2 CALM 0 0 0 0 1008.5 - 34.2
05/06:00am 24.2 30.0 23.9 98 0.2 CALM 0 0 0 0 1008.1 1008.0 34.2
05/05:30am 24.4 29.4 23.8 96 0.4 W 4 7 2 4 1008.2 - 34.2
05/05:19am 24.4 30.1 23.8 96 0.4 CALM 0 6 0 3 1008.1 - 34.2
05/05:00am 24.3 29.0 23.9 98 0.3 WSW 6 7 3 4 1008.0 - 34.2
05/04:57am 24.3 29.0 23.9 98 0.3 SW 6 7 3 4 1008.0 - 34.2
05/04:35am 24.1 28.7 23.8 98 0.2 N 6 7 3 4 1007.8 - 30.2
05/04:30am 24.1 28.7 23.8 98 0.2 NNW 6 7 3 4 1007.6 - 27.8
05/04:25am 24.1 28.4 23.7 98 0.3 NW 7 9 4 5 1007.6 - 27.8
05/04:00am 24.3 29.2 23.7 96 0.4 WSW 4 9 2 5 1007.4 - 27.8
05/03:30am 24.5 29.6 24.1 98 0.3 SSW 4 7 2 4 1007.5 - 27.8
05/03:08am 24.5 29.1 24.1 98 0.3 S 7 9 4 5 1007.5 - 27.8
05/03:00am 24.7 29.2 24.0 96 0.5 S 7 9 4 5 1007.7 1007.6 27.8
05/02:49am 24.6 28.0 24.0 96 0.4 SSW 13 17 7 9 1007.9 - 27.6
05/02:30am 24.2 26.7 23.8 98 0.3 SE 17 28 9 15 1008.5 - 22.8
05/02:16am 24.5 25.7 23.9 96 0.4 ESE 24 37 13 20 1008.9 - 8.4
05/02:10am 24.7 26.2 23.7 94 0.7 E 22 32 12 17 1008.7 - 2.8
05/02:00am 24.4 29.1 23.4 94 0.7 W 4 7 2 4 1008.1 - 1.4
05/01:30am 24.3 28.6 23.6 96 0.5 NW 7 9 4 5 1008.5 - 1.4
05/01:00am 24.6 30.1 23.4 93 0.8 CALM 0 0 0 0 1008.8 - 1.4
05/12:30am 24.6 30.3 23.7 95 0.6 CALM 0 0 0 0 1008.9 - 1.4
05/12:00am 24.9 30.6 23.7 93 0.8 CALM 0 0 0 0 1009.2 1009.1 1.4
 
Date/Time
EST
Temp
°C
App
Temp
°C
Dew
Point
Rel
Hum
%
Delta-T
°C
Wind Press
QNH
hPa
Press
MSL
hPa
Rain
since 9 am
mm
Dir
 
Spd
km/h
Gust
km/h
Spd
kts
Gust
kts
04/11:30pm 25.3 29.7 23.8 91 1.0 SE 7 9 4 5 1009.5 - 1.4
04/11:00pm 25.6 30.1 23.7 89 1.3 SE 6 7 3 4 1009.8 - 1.4
04/10:30pm 25.8 29.6 23.5 87 1.6 SSE 9 13 5 7 1009.8 - 1.4
04/10:00pm 26.0 29.6 23.1 84 2.0 SE 9 17 5 9 1009.8 - 1.4
04/09:30pm 25.6 30.5 23.6 89 1.4 SE 4 9 2 5 1009.9 - 1.4
04/09:13pm 25.6 29.2 23.7 89 1.3 E 11 13 6 7 1009.7 - 1.4
04/09:00pm 25.9 30.4 24.0 89 1.3 ESE 7 15 4 8 1009.8 1009.7 1.4
04/08:52pm 25.9 30.4 23.9 89 1.4 ESE 7 11 4 6 1009.7 - 1.4
04/08:30pm 25.8 29.5 23.3 86 1.7 SE 9 17 5 9 1009.4 - 1.4
04/08:00pm 25.2 30.4 24.2 94 0.7 SSE 4 7 2 4 1008.9 - 1.4
04/07:30pm 25.6 29.9 23.7 89 1.3 S 7 11 4 6 1008.6 - 1.4
04/07:00pm 25.5 30.0 23.9 91 1.1 ESE 7 9 4 5 1008.6 - 1.4
04/06:30pm 25.7 27.8 23.7 89 1.4 E 19 26 10 14 1008.4 - 1.4
04/06:00pm 26.2 28.8 24.6 91 1.1 E 19 30 10 16 1008.3 1008.2 1.4
04/05:47pm 26.3 28.9 24.9 92 1.0 E 20 26 11 14 1008.1 - 1.4
04/05:30pm 26.0 27.0 24.7 92 0.9 E 28 43 15 23 1007.9 - 1.0
04/05:28pm 26.1 27.1 24.7 92 1.0 ENE 28 43 15 23 1007.8 - 0.6
04/05:00pm 28.6 30.8 24.3 77 3.0 ENE 20 30 11 16 1007.4 - 0.2
04/04:30pm 28.6 30.8 24.0 76 3.2 E 19 26 10 14 1007.4 - 0.2
04/04:00pm 29.1 30.6 23.7 72 3.7 E 22 32 12 17 1007.2 - 0.2
04/03:30pm 30.1 32.8 24.8 73 3.7 E 19 26 10 14 1007.1 - 0.2
04/03:00pm 30.0 33.2 24.9 74 3.6 ENE 17 22 9 12 1007.3 1007.2 0.2
04/02:30pm 29.1 31.3 24.2 75 3.4 E 20 37 11 20 1007.6 - 0.2
04/02:00pm 30.1 32.4 24.1 70 4.2 E 19 26 10 14 1007.9 - 0.2
04/01:30pm 29.6 31.6 24.0 72 3.9 ENE 20 30 11 16 1008.3 - 0.2
04/01:00pm 29.7 30.1 23.1 67 4.5 E 26 35 14 19 1008.6 - 0.2
04/12:30pm 30.6 31.3 23.0 64 5.2 ESE 24 35 13 19 1009.1 - 0.2
04/12:00pm 30.3 31.6 24.1 69 4.3 ESE 24 33 13 18 1009.4 1009.3 0.2
04/11:30am 30.1 32.3 24.2 70 4.1 ESE 20 33 11 18 1009.7 - 0.0
04/11:00am 29.9 31.4 23.7 69 4.3 ESE 22 32 12 17 1009.8 - 0.0
04/10:30am 30.6 32.0 23.5 66 4.9 ESE 22 32 12 17 1009.8 - 0.0
04/10:00am 30.1 31.6 23.7 68 4.4 E 22 32 12 17 1009.8 - 0.0
04/09:30am 28.4 31.1 24.2 78 2.9 SE 17 28 9 15 1009.7 - 0.0
04/09:00am 29.5 31.0 23.7 71 4.0 ESE 22 33 12 18 1009.4 1009.3 2.8
04/08:30am 28.2 31.8 24.3 79 2.7 SE 13 19 7 10 1009.1 - 2.8
04/08:00am 27.2 31.5 24.3 84 2.0 S 9 13 5 7 1008.9 - 2.8
04/07:44am 26.7 31.0 24.2 86 1.7 SSE 9 17 5 9 1008.9 - 2.8
04/07:40am 26.9 31.4 24.6 87 1.6 SSE 9 17 5 9 1008.9 - 2.8
04/07:30am 26.8 30.9 23.9 84 2.0 SSE 9 15 5 8 1008.8 - 2.8
04/07:26am 26.9 31.2 24.3 86 1.8 ESE 9 15 5 8 1008.7 - 2.8
04/07:01am 26.2 30.5 23.3 84 2.0 S 6 13 3 7 1008.5 - 2.0
04/07:00am 26.2 30.4 23.4 84 1.9 SE 7 13 4 7 1008.6 - 2.0
04/06:30am 25.3 30.5 22.9 86 1.6 CALM 0 6 0 3 1008.2 - 2.0
04/06:00am 25.6 29.5 22.6 83 2.0 SW 6 7 3 4 1008.1 1008.0 2.0
04/05:30am 26.2 30.4 23.1 83 2.1 SSW 6 7 3 4 1007.7 - 2.0
04/05:00am 26.5 30.1 23.0 81 2.4 SSE 9 11 5 6 1007.4 - 2.0
04/04:30am 26.7 30.5 22.7 79 2.7 S 7 11 4 6 1007.4 - 2.0
04/04:00am 27.0 28.8 22.6 77 3.0 SE 17 28 9 15 1007.3 - 2.0
04/03:30am 27.4 29.4 22.2 73 3.5 SSE 15 22 8 12 1007.5 - 2.0
04/03:00am 27.5 28.4 21.5 70 4.0 SE 19 30 10 16 1007.5 1007.4 2.0
04/02:30am 27.6 29.3 22.4 73 3.5 SE 17 30 9 16 1007.6 - 2.0
04/02:00am 27.4 28.9 22.0 72 3.6 ESE 17 28 9 15 1008.1 - 2.0
04/01:30am 26.0 29.8 22.7 82 2.2 S 7 11 4 6 1008.6 - 2.0
04/01:00am 25.9 29.6 22.6 82 2.2 SSW 7 11 4 6 1009.1 - 2.0
04/12:30am 26.1 30.0 22.9 82 2.2 SSW 7 11 4 6 1009.5 - 2.0
04/12:00am 26.4 29.6 22.4 78 2.7 S 9 13 5 7 1009.8 1009.7 2.0
 
Date/Time
EST
Temp
°C
App
Temp
°C
Dew
Point
Rel
Hum
%
Delta-T
°C
Wind Press
QNH
hPa
Press
MSL
hPa
Rain
since 9 am
mm
Dir
 
Spd
km/h
Gust
km/h
Spd
kts
Gust
kts
03/11:30pm 26.5 29.5 22.7 79 2.6 SSE 11 17 6 9 1010.1 - 2.0
03/11:00pm 27.3 30.0 23.5 80 2.6 SE 15 24 8 13 1010.2 - 2.0
03/10:30pm 27.3 29.7 23.0 77 2.9 ESE 15 24 8 13 1010.0 - 2.0
03/10:00pm 27.7 29.5 23.2 76 3.1 SE 19 28 10 15 1009.9 - 2.0
03/09:30pm 27.7 29.3 22.2 72 3.7 SE 17 30 9 16 1009.8 - 2.0

Other Formats:

Comma delimited format used in spreadsheet applications
http://www.bom.gov.au/fwo/IDQ60801/IDQ60801.95283.axf

JavaScript Object Notation format (JSON) in row-major order
http://www.bom.gov.au/fwo/IDQ60801/IDQ60801.95283.json